sensor_id;sensor_type;location;lat;lon;timestamp;temperature;humidity
6581;DHT22;3324;50.796;7.228;2023-04-23T00:00:03;13.10;99.90
6581;DHT22;3324;50.796;7.228;2023-04-23T00:02:29;13.10;99.90
6581;DHT22;3324;50.796;7.228;2023-04-23T00:05:02;13.20;99.90
6581;DHT22;3324;50.796;7.228;2023-04-23T00:07:34;13.10;99.90
6581;DHT22;3324;50.796;7.228;2023-04-23T00:10:00;12.90;99.90
6581;DHT22;3324;50.796;7.228;2023-04-23T00:12:28;12.90;99.90
6581;DHT22;3324;50.796;7.228;2023-04-23T00:14:54;12.90;99.90
6581;DHT22;3324;50.796;7.228;2023-04-23T00:17:20;12.90;99.90
6581;DHT22;3324;50.796;7.228;2023-04-23T00:19:45;12.80;99.90
6581;DHT22;3324;50.796;7.228;2023-04-23T00:22:12;12.80;99.90
6581;DHT22;3324;50.796;7.228;2023-04-23T00:24:39;12.80;99.90
6581;DHT22;3324;50.796;7.228;2023-04-23T00:27:04;12.80;99.90
6581;DHT22;3324;50.796;7.228;2023-04-23T00:29:30;12.70;99.90
6581;DHT22;3324;50.796;7.228;2023-04-23T00:31:56;12.70;99.90
6581;DHT22;3324;50.796;7.228;2023-04-23T00:34:22;12.60;99.90
6581;DHT22;3324;50.796;7.228;2023-04-23T00:36:47;12.60;99.90
6581;DHT22;3324;50.796;7.228;2023-04-23T00:39:13;12.60;99.90
6581;DHT22;3324;50.796;7.228;2023-04-23T00:41:39;12.60;99.90
6581;DHT22;3324;50.796;7.228;2023-04-23T00:44:06;12.60;99.90
6581;DHT22;3324;50.796;7.228;2023-04-23T00:46:34;12.60;99.90
6581;DHT22;3324;50.796;7.228;2023-04-23T00:49:00;12.70;99.90
6581;DHT22;3324;50.796;7.228;2023-04-23T00:51:27;12.70;99.90
6581;DHT22;3324;50.796;7.228;2023-04-23T00:53:53;12.60;99.90
6581;DHT22;3324;50.796;7.228;2023-04-23T00:56:19;12.50;99.90
6581;DHT22;3324;50.796;7.228;2023-04-23T00:58:46;12.50;99.90
6581;DHT22;3324;50.796;7.228;2023-04-23T01:01:12;12.60;99.90
6581;DHT22;3324;50.796;7.228;2023-04-23T01:03:39;12.50;99.90
6581;DHT22;3324;50.796;7.228;2023-04-23T01:06:05;12.50;99.90
6581;DHT22;3324;50.796;7.228;2023-04-23T01:08:31;12.50;99.90
6581;DHT22;3324;50.796;7.228;2023-04-23T01:10:58;12.50;99.90
6581;DHT22;3324;50.796;7.228;2023-04-23T01:13:25;12.50;99.90
6581;DHT22;3324;50.796;7.228;2023-04-23T01:15:54;12.50;99.90
6581;DHT22;3324;50.796;7.228;2023-04-23T01:18:20;12.50;99.90
6581;DHT22;3324;50.796;7.228;2023-04-23T01:20:46;12.50;99.90
6581;DHT22;3324;50.796;7.228;2023-04-23T01:23:11;12.40;99.90
6581;DHT22;3324;50.796;7.228;2023-04-23T01:25:37;12.50;99.90
6581;DHT22;3324;50.796;7.228;2023-04-23T01:28:04;12.50;99.90
6581;DHT22;3324;50.796;7.228;2023-04-23T01:30:31;12.50;99.90
6581;DHT22;3324;50.796;7.228;2023-04-23T01:32:58;12.50;99.90
6581;DHT22;3324;50.796;7.228;2023-04-23T01:35:24;12.40;99.90
6581;DHT22;3324;50.796;7.228;2023-04-23T01:37:50;12.40;99.90
6581;DHT22;3324;50.796;7.228;2023-04-23T01:40:17;12.40;99.90
6581;DHT22;3324;50.796;7.228;2023-04-23T01:42:43;12.40;99.90
6581;DHT22;3324;50.796;7.228;2023-04-23T01:45:09;12.40;99.90
6581;DHT22;3324;50.796;7.228;2023-04-23T01:47:35;12.40;99.90
6581;DHT22;3324;50.796;7.228;2023-04-23T01:50:01;12.40;99.90
6581;DHT22;3324;50.796;7.228;2023-04-23T01:52:26;12.30;99.90
6581;DHT22;3324;50.796;7.228;2023-04-23T01:54:52;12.30;99.90
6581;DHT22;3324;50.796;7.228;2023-04-23T01:57:18;12.30;99.90
6581;DHT22;3324;50.796;7.228;2023-04-23T01:59:51;12.30;99.90
6581;DHT22;3324;50.796;7.228;2023-04-23T02:02:19;12.30;99.90
6581;DHT22;3324;50.796;7.228;2023-04-23T02:04:46;12.30;99.90
6581;DHT22;3324;50.796;7.228;2023-04-23T02:07:13;12.20;99.90
6581;DHT22;3324;50.796;7.228;2023-04-23T02:09:39;12.20;99.90
6581;DHT22;3324;50.796;7.228;2023-04-23T02:12:05;12.20;99.90
6581;DHT22;3324;50.796;7.228;2023-04-23T02:14:30;12.20;99.90
6581;DHT22;3324;50.796;7.228;2023-04-23T02:16:56;12.10;99.90
6581;DHT22;3324;50.796;7.228;2023-04-23T02:19:23;12.20;99.90
6581;DHT22;3324;50.796;7.228;2023-04-23T02:21:48;12.20;99.90
6581;DHT22;3324;50.796;7.228;2023-04-23T02:24:14;12.10;99.90
6581;DHT22;3324;50.796;7.228;2023-04-23T02:26:40;12.10;99.90
6581;DHT22;3324;50.796;7.228;2023-04-23T02:29:05;12.10;99.90
6581;DHT22;3324;50.796;7.228;2023-04-23T02:31:31;12.00;99.90
6581;DHT22;3324;50.796;7.228;2023-04-23T02:33:56;11.90;99.90
6581;DHT22;3324;50.796;7.228;2023-04-23T02:36:22;11.90;99.90
6581;DHT22;3324;50.796;7.228;2023-04-23T02:38:48;11.90;99.90
6581;DHT22;3324;50.796;7.228;2023-04-23T02:41:15;11.90;99.90
6581;DHT22;3324;50.796;7.228;2023-04-23T02:43:41;11.90;99.90
6581;DHT22;3324;50.796;7.228;2023-04-23T02:46:07;11.90;99.90
6581;DHT22;3324;50.796;7.228;2023-04-23T02:48:35;11.80;99.90
6581;DHT22;3324;50.796;7.228;2023-04-23T02:51:01;11.80;99.90
6581;DHT22;3324;50.796;7.228;2023-04-23T02:53:27;11.70;99.90
6581;DHT22;3324;50.796;7.228;2023-04-23T02:55:53;11.70;99.90
6581;DHT22;3324;50.796;7.228;2023-04-23T02:58:18;11.70;99.90
6581;DHT22;3324;50.796;7.228;2023-04-23T03:00:44;11.70;99.90
6581;DHT22;3324;50.796;7.228;2023-04-23T03:03:10;11.70;99.90
6581;DHT22;3324;50.796;7.228;2023-04-23T03:05:35;11.60;99.90
6581;DHT22;3324;50.796;7.228;2023-04-23T03:08:01;11.60;99.90
6581;DHT22;3324;50.796;7.228;2023-04-23T03:10:26;11.60;99.90
6581;DHT22;3324;50.796;7.228;2023-04-23T03:12:52;11.60;99.90
6581;DHT22;3324;50.796;7.228;2023-04-23T03:15:17;11.60;99.90
6581;DHT22;3324;50.796;7.228;2023-04-23T03:17:43;11.50;99.90
6581;DHT22;3324;50.796;7.228;2023-04-23T03:20:09;11.50;99.90
6581;DHT22;3324;50.796;7.228;2023-04-23T03:22:38;11.50;99.90
6581;DHT22;3324;50.796;7.228;2023-04-23T03:25:05;11.40;99.90
6581;DHT22;3324;50.796;7.228;2023-04-23T03:27:31;11.50;99.90
6581;DHT22;3324;50.796;7.228;2023-04-23T03:29:56;11.40;99.90
6581;DHT22;3324;50.796;7.228;2023-04-23T03:32:22;11.40;99.90
6581;DHT22;3324;50.796;7.228;2023-04-23T03:34:48;11.30;99.90
6581;DHT22;3324;50.796;7.228;2023-04-23T03:37:14;11.30;99.90
6581;DHT22;3324;50.796;7.228;2023-04-23T03:39:39;11.30;99.90
6581;DHT22;3324;50.796;7.228;2023-04-23T03:42:05;11.30;99.90
6581;DHT22;3324;50.796;7.228;2023-04-23T03:44:31;11.30;99.90
6581;DHT22;3324;50.796;7.228;2023-04-23T03:46:56;11.30;99.90
6581;DHT22;3324;50.796;7.228;2023-04-23T03:49:23;11.30;99.90
6581;DHT22;3324;50.796;7.228;2023-04-23T03:51:48;11.30;99.90
6581;DHT22;3324;50.796;7.228;2023-04-23T03:54:14;11.30;99.90
6581;DHT22;3324;50.796;7.228;2023-04-23T03:56:40;11.30;99.90
6581;DHT22;3324;50.796;7.228;2023-04-23T03:59:05;11.20;99.90
6581;DHT22;3324;50.796;7.228;2023-04-23T04:01:31;11.20;99.90
6581;DHT22;3324;50.796;7.228;2023-04-23T04:03:57;11.30;99.90
6581;DHT22;3324;50.796;7.228;2023-04-23T04:06:23;11.20;99.90
6581;DHT22;3324;50.796;7.228;2023-04-23T04:08:48;11.20;99.90
6581;DHT22;3324;50.796;7.228;2023-04-23T04:11:14;11.20;99.90
6581;DHT22;3324;50.796;7.228;2023-04-23T04:13:40;11.30;99.90
6581;DHT22;3324;50.796;7.228;2023-04-23T04:16:05;11.20;99.90
6581;DHT22;3324;50.796;7.228;2023-04-23T04:18:31;11.20;99.90
6581;DHT22;3324;50.796;7.228;2023-04-23T04:20:56;11.20;99.90
6581;DHT22;3324;50.796;7.228;2023-04-23T04:23:22;11.20;99.90
6581;DHT22;3324;50.796;7.228;2023-04-23T04:25:47;11.20;99.90
6581;DHT22;3324;50.796;7.228;2023-04-23T04:28:15;11.10;99.90
6581;DHT22;3324;50.796;7.228;2023-04-23T04:30:41;11.10;99.90
6581;DHT22;3324;50.796;7.228;2023-04-23T04:33:07;11.10;99.90
6581;DHT22;3324;50.796;7.228;2023-04-23T04:35:33;11.10;99.90
6581;DHT22;3324;50.796;7.228;2023-04-23T04:37:59;11.10;99.90
6581;DHT22;3324;50.796;7.228;2023-04-23T04:40:25;11.10;99.90
6581;DHT22;3324;50.796;7.228;2023-04-23T04:42:52;11.10;99.90
6581;DHT22;3324;50.796;7.228;2023-04-23T04:45:19;11.10;99.90
6581;DHT22;3324;50.796;7.228;2023-04-23T04:47:45;11.10;99.90
6581;DHT22;3324;50.796;7.228;2023-04-23T04:50:10;11.20;99.90
6581;DHT22;3324;50.796;7.228;2023-04-23T04:52:36;11.20;99.90
6581;DHT22;3324;50.796;7.228;2023-04-23T04:55:02;11.20;99.90
6581;DHT22;3324;50.796;7.228;2023-04-23T04:57:28;11.20;99.90
6581;DHT22;3324;50.796;7.228;2023-04-23T04:59:53;11.20;99.90
6581;DHT22;3324;50.796;7.228;2023-04-23T05:02:19;11.20;99.90
6581;DHT22;3324;50.796;7.228;2023-04-23T05:04:46;11.20;99.90
6581;DHT22;3324;50.796;7.228;2023-04-23T05:07:11;11.20;99.90
6581;DHT22;3324;50.796;7.228;2023-04-23T05:09:37;11.20;99.90
6581;DHT22;3324;50.796;7.228;2023-04-23T05:12:03;11.30;99.90
6581;DHT22;3324;50.796;7.228;2023-04-23T05:14:32;11.30;99.90
6581;DHT22;3324;50.796;7.228;2023-04-23T05:16:57;11.30;99.90
6581;DHT22;3324;50.796;7.228;2023-04-23T05:19:23;11.30;99.90
6581;DHT22;3324;50.796;7.228;2023-04-23T05:21:48;11.40;99.90
6581;DHT22;3324;50.796;7.228;2023-04-23T05:24:14;11.40;99.90
6581;DHT22;3324;50.796;7.228;2023-04-23T05:26:39;11.50;99.90
6581;DHT22;3324;50.796;7.228;2023-04-23T05:29:05;11.70;99.90
6581;DHT22;3324;50.796;7.228;2023-04-23T05:31:31;11.70;99.90
6581;DHT22;3324;50.796;7.228;2023-04-23T05:33:56;11.80;99.90
6581;DHT22;3324;50.796;7.228;2023-04-23T05:36:22;11.90;99.90
6581;DHT22;3324;50.796;7.228;2023-04-23T05:38:47;12.00;99.90
6581;DHT22;3324;50.796;7.228;2023-04-23T05:41:14;12.00;99.90
6581;DHT22;3324;50.796;7.228;2023-04-23T05:43:40;12.10;99.90
6581;DHT22;3324;50.796;7.228;2023-04-23T05:46:05;12.10;99.90
6581;DHT22;3324;50.796;7.228;2023-04-23T05:48:32;12.10;99.90
6581;DHT22;3324;50.796;7.228;2023-04-23T05:50:58;12.20;99.90
6581;DHT22;3324;50.796;7.228;2023-04-23T05:53:23;12.20;99.90
6581;DHT22;3324;50.796;7.228;2023-04-23T05:55:49;12.30;99.90
6581;DHT22;3324;50.796;7.228;2023-04-23T05:58:14;12.40;99.90
6581;DHT22;3324;50.796;7.228;2023-04-23T06:00:40;12.50;99.90
6581;DHT22;3324;50.796;7.228;2023-04-23T06:03:06;12.70;99.90
6581;DHT22;3324;50.796;7.228;2023-04-23T06:05:31;12.70;99.90
6581;DHT22;3324;50.796;7.228;2023-04-23T06:07:57;12.80;99.90
6581;DHT22;3324;50.796;7.228;2023-04-23T06:10:23;13.00;99.90
6581;DHT22;3324;50.796;7.228;2023-04-23T06:12:48;13.10;99.90
6581;DHT22;3324;50.796;7.228;2023-04-23T06:15:14;13.20;99.90
6581;DHT22;3324;50.796;7.228;2023-04-23T06:17:40;13.20;99.90
6581;DHT22;3324;50.796;7.228;2023-04-23T06:20:06;13.20;99.90
6581;DHT22;3324;50.796;7.228;2023-04-23T06:22:33;13.20;99.90
6581;DHT22;3324;50.796;7.228;2023-04-23T06:24:58;13.20;99.90
6581;DHT22;3324;50.796;7.228;2023-04-23T06:27:24;13.10;99.90
6581;DHT22;3324;50.796;7.228;2023-04-23T06:29:51;13.10;99.90
6581;DHT22;3324;50.796;7.228;2023-04-23T06:32:16;13.10;99.90
6581;DHT22;3324;50.796;7.228;2023-04-23T06:34:42;13.20;99.90
6581;DHT22;3324;50.796;7.228;2023-04-23T06:37:08;13.10;99.90
6581;DHT22;3324;50.796;7.228;2023-04-23T06:39:33;13.10;99.90
6581;DHT22;3324;50.796;7.228;2023-04-23T06:41:59;13.20;99.90
6581;DHT22;3324;50.796;7.228;2023-04-23T06:44:24;13.20;99.90
6581;DHT22;3324;50.796;7.228;2023-04-23T06:46:50;13.30;99.90
6581;DHT22;3324;50.796;7.228;2023-04-23T06:49:16;13.30;99.90
6581;DHT22;3324;50.796;7.228;2023-04-23T06:51:41;13.30;99.90
6581;DHT22;3324;50.796;7.228;2023-04-23T06:54:07;13.30;99.90
6581;DHT22;3324;50.796;7.228;2023-04-23T06:56:32;13.30;99.90
6581;DHT22;3324;50.796;7.228;2023-04-23T06:58:58;13.30;99.90
6581;DHT22;3324;50.796;7.228;2023-04-23T07:01:23;13.30;99.90
6581;DHT22;3324;50.796;7.228;2023-04-23T07:03:49;13.30;99.90
6581;DHT22;3324;50.796;7.228;2023-04-23T07:06:18;13.40;99.90
6581;DHT22;3324;50.796;7.228;2023-04-23T07:08:44;13.40;99.90
6581;DHT22;3324;50.796;7.228;2023-04-23T07:11:10;13.40;99.90
6581;DHT22;3324;50.796;7.228;2023-04-23T07:13:36;13.40;99.90
6581;DHT22;3324;50.796;7.228;2023-04-23T07:16:02;13.40;99.90
6581;DHT22;3324;50.796;7.228;2023-04-23T07:18:27;13.40;99.90
6581;DHT22;3324;50.796;7.228;2023-04-23T07:20:53;13.50;99.90
6581;DHT22;3324;50.796;7.228;2023-04-23T07:23:19;13.50;99.90
6581;DHT22;3324;50.796;7.228;2023-04-23T07:25:44;13.70;99.90
6581;DHT22;3324;50.796;7.228;2023-04-23T07:28:10;13.70;99.90
6581;DHT22;3324;50.796;7.228;2023-04-23T07:30:36;13.70;99.90
6581;DHT22;3324;50.796;7.228;2023-04-23T07:33:01;13.80;99.90
6581;DHT22;3324;50.796;7.228;2023-04-23T07:35:27;13.90;99.90
6581;DHT22;3324;50.796;7.228;2023-04-23T07:37:53;13.90;99.90
6581;DHT22;3324;50.796;7.228;2023-04-23T07:40:24;14.00;99.90
6581;DHT22;3324;50.796;7.228;2023-04-23T07:42:50;14.20;99.90
6581;DHT22;3324;50.796;7.228;2023-04-23T07:45:16;14.30;99.90
6581;DHT22;3324;50.796;7.228;2023-04-23T07:47:42;14.50;99.90
6581;DHT22;3324;50.796;7.228;2023-04-23T07:50:08;14.70;99.90
6581;DHT22;3324;50.796;7.228;2023-04-23T07:52:34;15.00;99.90
6581;DHT22;3324;50.796;7.228;2023-04-23T07:55:00;15.10;99.90
6581;DHT22;3324;50.796;7.228;2023-04-23T07:57:26;15.10;99.90
6581;DHT22;3324;50.796;7.228;2023-04-23T07:59:51;15.20;99.90
6581;DHT22;3324;50.796;7.228;2023-04-23T08:02:17;15.10;99.90
6581;DHT22;3324;50.796;7.228;2023-04-23T08:04:48;15.10;99.90
6581;DHT22;3324;50.796;7.228;2023-04-23T08:07:13;15.20;99.90
6581;DHT22;3324;50.796;7.228;2023-04-23T08:09:39;15.20;99.90
6581;DHT22;3324;50.796;7.228;2023-04-23T08:12:04;15.20;99.90
6581;DHT22;3324;50.796;7.228;2023-04-23T08:14:30;15.20;99.90
6581;DHT22;3324;50.796;7.228;2023-04-23T08:16:55;15.20;99.90
6581;DHT22;3324;50.796;7.228;2023-04-23T08:19:21;15.20;99.90
6581;DHT22;3324;50.796;7.228;2023-04-23T08:21:47;15.30;99.90
6581;DHT22;3324;50.796;7.228;2023-04-23T08:24:13;15.40;99.90
6581;DHT22;3324;50.796;7.228;2023-04-23T08:26:38;15.50;99.90
6581;DHT22;3324;50.796;7.228;2023-04-23T08:29:04;15.60;99.90
6581;DHT22;3324;50.796;7.228;2023-04-23T08:31:30;15.60;99.90
6581;DHT22;3324;50.796;7.228;2023-04-23T08:33:56;15.60;99.90
6581;DHT22;3324;50.796;7.228;2023-04-23T08:36:22;15.60;99.90
6581;DHT22;3324;50.796;7.228;2023-04-23T08:38:49;15.60;99.90
6581;DHT22;3324;50.796;7.228;2023-04-23T08:41:17;15.50;99.90
6581;DHT22;3324;50.796;7.228;2023-04-23T08:43:50;15.40;99.90
6581;DHT22;3324;50.796;7.228;2023-04-23T08:46:17;15.40;99.90
6581;DHT22;3324;50.796;7.228;2023-04-23T08:48:44;15.50;99.90
6581;DHT22;3324;50.796;7.228;2023-04-23T08:51:15;15.60;99.90
6581;DHT22;3324;50.796;7.228;2023-04-23T08:53:43;15.70;99.90
6581;DHT22;3324;50.796;7.228;2023-04-23T08:56:12;15.80;99.90
6581;DHT22;3324;50.796;7.228;2023-04-23T08:58:38;15.90;99.90
6581;DHT22;3324;50.796;7.228;2023-04-23T09:01:06;16.00;99.90
6581;DHT22;3324;50.796;7.228;2023-04-23T09:03:32;16.20;99.90
6581;DHT22;3324;50.796;7.228;2023-04-23T09:05:58;16.30;99.90
6581;DHT22;3324;50.796;7.228;2023-04-23T09:08:23;16.50;99.90
6581;DHT22;3324;50.796;7.228;2023-04-23T09:10:51;16.50;99.90
6581;DHT22;3324;50.796;7.228;2023-04-23T09:13:16;16.60;99.90
6581;DHT22;3324;50.796;7.228;2023-04-23T09:15:42;16.70;99.90
6581;DHT22;3324;50.796;7.228;2023-04-23T09:18:08;16.70;99.90
6581;DHT22;3324;50.796;7.228;2023-04-23T09:20:34;16.70;99.90
6581;DHT22;3324;50.796;7.228;2023-04-23T09:23:05;16.90;99.90
6581;DHT22;3324;50.796;7.228;2023-04-23T09:25:31;17.10;99.90
6581;DHT22;3324;50.796;7.228;2023-04-23T09:27:57;17.20;99.90
6581;DHT22;3324;50.796;7.228;2023-04-23T09:30:23;17.30;99.90
6581;DHT22;3324;50.796;7.228;2023-04-23T09:32:50;17.30;99.90
6581;DHT22;3324;50.796;7.228;2023-04-23T09:35:17;17.50;99.90
6581;DHT22;3324;50.796;7.228;2023-04-23T09:37:48;17.60;99.90
6581;DHT22;3324;50.796;7.228;2023-04-23T09:40:18;17.70;99.90
6581;DHT22;3324;50.796;7.228;2023-04-23T09:42:51;17.80;99.90
6581;DHT22;3324;50.796;7.228;2023-04-23T09:45:19;17.90;99.90
6581;DHT22;3324;50.796;7.228;2023-04-23T09:47:55;17.80;99.90
6581;DHT22;3324;50.796;7.228;2023-04-23T09:52:56;17.40;99.90
6581;DHT22;3324;50.796;7.228;2023-04-23T09:55:36;17.50;99.90
6581;DHT22;3324;50.796;7.228;2023-04-23T09:58:04;17.70;99.90
6581;DHT22;3324;50.796;7.228;2023-04-23T10:00:35;18.00;99.90
6581;DHT22;3324;50.796;7.228;2023-04-23T10:03:01;18.10;99.90
6581;DHT22;3324;50.796;7.228;2023-04-23T10:05:27;18.20;99.90
6581;DHT22;3324;50.796;7.228;2023-04-23T10:07:55;18.50;99.90
6581;DHT22;3324;50.796;7.228;2023-04-23T10:10:22;18.70;99.90
6581;DHT22;3324;50.796;7.228;2023-04-23T10:12:51;18.80;99.90
6581;DHT22;3324;50.796;7.228;2023-04-23T10:15:17;18.90;99.90
6581;DHT22;3324;50.796;7.228;2023-04-23T10:17:44;19.00;99.90
6581;DHT22;3324;50.796;7.228;2023-04-23T10:20:10;19.00;99.90
6581;DHT22;3324;50.796;7.228;2023-04-23T10:22:38;19.10;99.90
6581;DHT22;3324;50.796;7.228;2023-04-23T10:25:07;19.10;99.90
6581;DHT22;3324;50.796;7.228;2023-04-23T10:27:40;19.20;99.90
6581;DHT22;3324;50.796;7.228;2023-04-23T10:30:07;19.00;99.90
6581;DHT22;3324;50.796;7.228;2023-04-23T10:32:33;18.70;99.90
6581;DHT22;3324;50.796;7.228;2023-04-23T10:34:59;18.50;99.90
6581;DHT22;3324;50.796;7.228;2023-04-23T10:37:25;18.40;99.90
6581;DHT22;3324;50.796;7.228;2023-04-23T10:39:54;18.20;99.90
6581;DHT22;3324;50.796;7.228;2023-04-23T10:42:21;18.10;99.90
6581;DHT22;3324;50.796;7.228;2023-04-23T10:44:47;18.10;99.90
6581;DHT22;3324;50.796;7.228;2023-04-23T10:47:16;18.20;99.90
6581;DHT22;3324;50.796;7.228;2023-04-23T10:49:43;18.10;99.90
6581;DHT22;3324;50.796;7.228;2023-04-23T10:52:09;18.10;99.90
6581;DHT22;3324;50.796;7.228;2023-04-23T10:54:39;18.10;99.90
6581;DHT22;3324;50.796;7.228;2023-04-23T10:57:06;18.10;99.90
6581;DHT22;3324;50.796;7.228;2023-04-23T10:59:38;18.10;99.90
6581;DHT22;3324;50.796;7.228;2023-04-23T11:02:08;17.90;99.90
6581;DHT22;3324;50.796;7.228;2023-04-23T11:04:39;17.90;99.90
6581;DHT22;3324;50.796;7.228;2023-04-23T11:07:07;17.90;99.90
6581;DHT22;3324;50.796;7.228;2023-04-23T11:09:48;17.90;99.90
6581;DHT22;3324;50.796;7.228;2023-04-23T11:14:49;17.80;99.90
6581;DHT22;3324;50.796;7.228;2023-04-23T11:17:17;17.80;99.90
6581;DHT22;3324;50.796;7.228;2023-04-23T11:22:35;17.90;99.90
6581;DHT22;3324;50.796;7.228;2023-04-23T11:25:02;18.00;99.90
6581;DHT22;3324;50.796;7.228;2023-04-23T11:27:29;18.10;99.90
6581;DHT22;3324;50.796;7.228;2023-04-23T11:29:56;18.10;99.90
6581;DHT22;3324;50.796;7.228;2023-04-23T11:32:21;17.90;99.90
6581;DHT22;3324;50.796;7.228;2023-04-23T11:34:47;17.80;99.90
6581;DHT22;3324;50.796;7.228;2023-04-23T11:37:17;17.60;99.90
6581;DHT22;3324;50.796;7.228;2023-04-23T11:39:44;17.70;99.90
6581;DHT22;3324;50.796;7.228;2023-04-23T11:42:11;17.80;99.90
6581;DHT22;3324;50.796;7.228;2023-04-23T11:44:38;17.90;99.90
6581;DHT22;3324;50.796;7.228;2023-04-23T11:47:06;17.90;99.90
6581;DHT22;3324;50.796;7.228;2023-04-23T11:49:32;17.90;99.90
6581;DHT22;3324;50.796;7.228;2023-04-23T11:51:59;18.00;99.90
6581;DHT22;3324;50.796;7.228;2023-04-23T11:54:27;18.20;99.90
6581;DHT22;3324;50.796;7.228;2023-04-23T11:56:54;18.30;99.90
6581;DHT22;3324;50.796;7.228;2023-04-23T11:59:20;18.30;99.90
6581;DHT22;3324;50.796;7.228;2023-04-23T12:01:47;18.40;99.90
6581;DHT22;3324;50.796;7.228;2023-04-23T12:04:17;18.40;99.90
6581;DHT22;3324;50.796;7.228;2023-04-23T12:06:45;18.40;99.90
6581;DHT22;3324;50.796;7.228;2023-04-23T12:09:12;18.60;99.90
6581;DHT22;3324;50.796;7.228;2023-04-23T12:11:40;18.80;99.90
6581;DHT22;3324;50.796;7.228;2023-04-23T12:14:06;19.00;98.70
6581;DHT22;3324;50.796;7.228;2023-04-23T12:16:47;19.00;99.90
6581;DHT22;3324;50.796;7.228;2023-04-23T12:19:24;19.00;99.90
6581;DHT22;3324;50.796;7.228;2023-04-23T12:21:55;19.00;99.90
6581;DHT22;3324;50.796;7.228;2023-04-23T12:24:29;19.00;99.90
6581;DHT22;3324;50.796;7.228;2023-04-23T12:26:57;18.90;99.90
6581;DHT22;3324;50.796;7.228;2023-04-23T12:29:25;19.20;99.90
6581;DHT22;3324;50.796;7.228;2023-04-23T12:31:51;19.50;99.90
6581;DHT22;3324;50.796;7.228;2023-04-23T12:34:18;19.70;99.90
6581;DHT22;3324;50.796;7.228;2023-04-23T12:36:51;19.80;99.40
6581;DHT22;3324;50.796;7.228;2023-04-23T12:39:29;19.80;99.80
6581;DHT22;3324;50.796;7.228;2023-04-23T12:41:57;19.70;99.10
6581;DHT22;3324;50.796;7.228;2023-04-23T12:44:25;19.50;99.40
6581;DHT22;3324;50.796;7.228;2023-04-23T12:46:59;19.70;99.90
6581;DHT22;3324;50.796;7.228;2023-04-23T12:49:25;19.80;99.80
6581;DHT22;3324;50.796;7.228;2023-04-23T12:51:52;20.00;99.90
6581;DHT22;3324;50.796;7.228;2023-04-23T12:54:23;20.10;99.90
6581;DHT22;3324;50.796;7.228;2023-04-23T12:56:49;20.20;98.50
6581;DHT22;3324;50.796;7.228;2023-04-23T12:59:14;20.00;97.40
6581;DHT22;3324;50.796;7.228;2023-04-23T13:01:40;19.80;99.10
6581;DHT22;3324;50.796;7.228;2023-04-23T13:04:06;19.90;99.20
6581;DHT22;3324;50.796;7.228;2023-04-23T13:06:32;20.00;99.90
6581;DHT22;3324;50.796;7.228;2023-04-23T13:08:57;20.00;97.70
6581;DHT22;3324;50.796;7.228;2023-04-23T13:11:25;19.90;97.40
6581;DHT22;3324;50.796;7.228;2023-04-23T13:13:50;19.90;96.80
6581;DHT22;3324;50.796;7.228;2023-04-23T13:16:16;19.90;95.40
6581;DHT22;3324;50.796;7.228;2023-04-23T13:18:42;19.80;95.90
6581;DHT22;3324;50.796;7.228;2023-04-23T13:21:09;19.60;94.80
6581;DHT22;3324;50.796;7.228;2023-04-23T13:23:35;19.50;97.20
6581;DHT22;3324;50.796;7.228;2023-04-23T13:26:02;19.50;95.80
6581;DHT22;3324;50.796;7.228;2023-04-23T13:28:28;19.50;96.00
6581;DHT22;3324;50.796;7.228;2023-04-23T13:30:54;19.40;94.10
6581;DHT22;3324;50.796;7.228;2023-04-23T13:33:19;19.20;94.80
6581;DHT22;3324;50.796;7.228;2023-04-23T13:35:45;19.00;95.50
6581;DHT22;3324;50.796;7.228;2023-04-23T13:38:12;19.00;95.70
6581;DHT22;3324;50.796;7.228;2023-04-23T13:40:37;18.80;97.70
6581;DHT22;3324;50.796;7.228;2023-04-23T13:43:03;18.80;99.90
6581;DHT22;3324;50.796;7.228;2023-04-23T13:45:30;18.80;99.90
6581;DHT22;3324;50.796;7.228;2023-04-23T13:47:56;18.80;99.90
6581;DHT22;3324;50.796;7.228;2023-04-23T13:50:21;18.70;99.90
6581;DHT22;3324;50.796;7.228;2023-04-23T13:52:47;18.70;99.90
6581;DHT22;3324;50.796;7.228;2023-04-23T13:55:13;18.50;99.90
6581;DHT22;3324;50.796;7.228;2023-04-23T13:57:38;18.50;99.90
6581;DHT22;3324;50.796;7.228;2023-04-23T14:00:05;18.40;99.90
6581;DHT22;3324;50.796;7.228;2023-04-23T14:02:31;18.30;99.90
6581;DHT22;3324;50.796;7.228;2023-04-23T14:04:57;18.20;99.90
6581;DHT22;3324;50.796;7.228;2023-04-23T14:07:22;18.10;99.90
6581;DHT22;3324;50.796;7.228;2023-04-23T14:09:48;18.00;99.90
6581;DHT22;3324;50.796;7.228;2023-04-23T14:12:17;17.90;99.90
6581;DHT22;3324;50.796;7.228;2023-04-23T14:14:43;17.90;99.90
6581;DHT22;3324;50.796;7.228;2023-04-23T14:17:09;17.90;99.90
6581;DHT22;3324;50.796;7.228;2023-04-23T14:19:34;17.90;99.90
6581;DHT22;3324;50.796;7.228;2023-04-23T14:22:02;17.70;99.90
6581;DHT22;3324;50.796;7.228;2023-04-23T14:24:33;17.70;99.90
6581;DHT22;3324;50.796;7.228;2023-04-23T14:27:03;17.70;99.90
6581;DHT22;3324;50.796;7.228;2023-04-23T14:31:54;17.80;99.90
6581;DHT22;3324;50.796;7.228;2023-04-23T14:34:20;17.70;99.90
6581;DHT22;3324;50.796;7.228;2023-04-23T14:36:46;17.70;99.90
6581;DHT22;3324;50.796;7.228;2023-04-23T14:39:14;17.80;99.90
6581;DHT22;3324;50.796;7.228;2023-04-23T14:41:39;17.80;99.90
6581;DHT22;3324;50.796;7.228;2023-04-23T14:44:05;17.70;99.90
6581;DHT22;3324;50.796;7.228;2023-04-23T14:46:31;17.80;99.90
6581;DHT22;3324;50.796;7.228;2023-04-23T14:48:57;17.70;99.90
6581;DHT22;3324;50.796;7.228;2023-04-23T14:51:23;17.70;99.90
6581;DHT22;3324;50.796;7.228;2023-04-23T14:53:50;17.70;99.90
6581;DHT22;3324;50.796;7.228;2023-04-23T14:56:15;17.70;99.90
6581;DHT22;3324;50.796;7.228;2023-04-23T14:58:41;17.70;99.90
6581;DHT22;3324;50.796;7.228;2023-04-23T15:01:07;17.70;99.90
6581;DHT22;3324;50.796;7.228;2023-04-23T15:03:33;17.80;99.90
6581;DHT22;3324;50.796;7.228;2023-04-23T15:05:59;17.70;99.90
6581;DHT22;3324;50.796;7.228;2023-04-23T15:08:24;17.60;99.90
6581;DHT22;3324;50.796;7.228;2023-04-23T15:10:50;17.60;99.90
6581;DHT22;3324;50.796;7.228;2023-04-23T15:16:02;17.50;99.90
6581;DHT22;3324;50.796;7.228;2023-04-23T15:18:28;17.40;99.90
6581;DHT22;3324;50.796;7.228;2023-04-23T15:20:53;17.40;99.90
6581;DHT22;3324;50.796;7.228;2023-04-23T15:23:19;17.40;99.90
6581;DHT22;3324;50.796;7.228;2023-04-23T15:25:48;17.40;99.90
6581;DHT22;3324;50.796;7.228;2023-04-23T15:28:13;17.50;99.90
6581;DHT22;3324;50.796;7.228;2023-04-23T15:30:40;17.50;99.90
6581;DHT22;3324;50.796;7.228;2023-04-23T15:33:07;17.50;99.90
6581;DHT22;3324;50.796;7.228;2023-04-23T15:35:33;17.50;99.90
6581;DHT22;3324;50.796;7.228;2023-04-23T15:37:58;17.40;99.90
6581;DHT22;3324;50.796;7.228;2023-04-23T15:40:26;17.40;99.90
6581;DHT22;3324;50.796;7.228;2023-04-23T15:42:53;17.30;99.90
6581;DHT22;3324;50.796;7.228;2023-04-23T15:45:19;17.30;99.90
6581;DHT22;3324;50.796;7.228;2023-04-23T15:47:45;17.30;99.90
6581;DHT22;3324;50.796;7.228;2023-04-23T15:50:11;17.30;99.90
6581;DHT22;3324;50.796;7.228;2023-04-23T15:52:37;17.20;99.90
6581;DHT22;3324;50.796;7.228;2023-04-23T15:55:04;17.10;99.90
6581;DHT22;3324;50.796;7.228;2023-04-23T15:57:30;17.10;99.90
6581;DHT22;3324;50.796;7.228;2023-04-23T15:59:56;17.10;99.90
6581;DHT22;3324;50.796;7.228;2023-04-23T16:02:21;17.00;99.90
6581;DHT22;3324;50.796;7.228;2023-04-23T16:04:47;16.90;99.90
6581;DHT22;3324;50.796;7.228;2023-04-23T16:07:15;16.80;99.90
6581;DHT22;3324;50.796;7.228;2023-04-23T16:09:41;16.70;99.90